• Join FlightAware (Why Join?)
  • Login
  • US Flag 
05:35AM EST


 

Airport Tracker/Info


-or-


 

Live Flight TrackerFlight Track Log ✈ DAL6032 ✈ 28-Apr-2013 ✈ KMEM - KCMH

Flight Track Log - Related Links

Times and Time Zones

All times are in EDT time to prevent confusion due to time zone crossing. See the DAL6032 flight status page for this flight to view local times or setup timezone preferences in your user account.

Time Position Orientation Groundspeed Altitude Reporting Facility
EDT Latitude Longitude Course Direction KTS MPH feet Rate Location/Type
08:58PM 35.0500 -89.9667 73° East 163 188 800  Level KMEM
09:00PM 35.1167 -89.9333 22° Northeast 226 260 3,600 1,860 Climbing KMEM
09:01PM 35.1197 -89.5824 72° East  Level FlightAware Approximate
09:01PM 35.1333 -89.8500 76° East 273 314 5,400  Level KMEM
09:01PM 35.1500 -89.7667 76° East 269 310 7,600 2,340 Climbing KMEM
09:02PM 35.1537 -89.4560 72° East  Level FlightAware Approximate
09:03PM 35.1877 -89.3295 72° East  Level FlightAware Approximate
09:03PM 35.1667 -89.6667 78° East 283 326 10,200  Level KMEM
09:03PM 35.1719 -89.6153 83° East 285 328 11,100 1,320 Climbing Memphis Center
09:04PM 35.2202 -89.2025 73° East  Level FlightAware Approximate
09:04PM 35.1881 -89.5058 80° East 326 375 12,400  Level Memphis Center
09:05PM 35.2039 -89.3914 80° East 337 388 14,200 1,680 Climbing Memphis Center
09:06PM 35.2194 -89.2642 81° East 337 388 15,800 1,560 Climbing Memphis Center
09:07PM 35.2372 -89.1469 79° East 348 400 17,400 1,620 Climbing Memphis Center
09:08PM 35.2967 -89.0544 52° Northeast 338 389 19,100 1,800 Climbing Memphis Center
09:09PM 35.3561 -88.9644 51° Northeast 343 395 21,000 1,740 Climbing Memphis Center
09:10PM 35.4178 -88.8717 51° Northeast 343 395 22,600 1,500 Climbing Memphis Center
09:11PM 35.4689 -88.7867 54° Northeast 343 395 24,100 1,560 Climbing Memphis Center
09:12PM 35.5261 -88.6964 52° Northeast 343 395 25,800 1,320 Climbing Memphis Center
09:13PM 35.5892 -88.5981 52° Northeast 349 402 26,800 960 Climbing Memphis Center
09:14PM 35.6547 -88.4994 51° Northeast 354 407 27,800 960 Climbing Memphis Center
09:15PM 35.7197 -88.3958 52° Northeast 367 422 28,800 600 Climbing Memphis Center
09:16PM 35.7889 -88.2867 52° Northeast 383 441 29,000 60 Climbing Memphis Center
09:17PM 35.8600 -88.1772 51° Northeast 400 460 29,000  Level Memphis Center
09:18PM 35.9331 -88.0625 52° Northeast 400 460 29,000  Level Memphis Center
09:19PM 36.0039 -87.9503 52° Northeast 400 460 29,000  Level Memphis Center
09:20PM 36.0725 -87.8456 51° Northeast 395 455 29,000  Level Memphis Center
09:21PM 36.1411 -87.7328 53° Northeast 402 463 29,000  Level Memphis Center
09:22PM 36.2097 -87.6228 52° Northeast 402 463 29,000  Level Memphis Center
09:23PM 36.2800 -87.5069 53° Northeast 402 463 29,000  Level Memphis Center
09:24PM 36.3525 -87.3911 52° Northeast 407 468 29,000  Level Memphis Center
09:25PM 36.4225 -87.2803 52° Northeast 412 474 29,000  Level Memphis Center
09:26PM 36.4847 -87.1772 53° Northeast 412 474 29,000  Level Memphis Center
09:27PM 36.5547 -87.0658 52° Northeast 412 474 29,000  Level Memphis Center
09:28PM 36.6225 -86.9519 53° Northeast 412 474 29,000  Level Memphis Center
09:29PM 36.6983 -86.8272 53° Northeast 412 474 29,000  Level Memphis Center
09:30PM 36.7678 -86.7128 53° Northeast 412 474 29,000  Level Memphis Center
09:31PM 36.8372 -86.5956 53° Northeast 412 474 29,000  Level Memphis Center
09:33PM 37.0133 -86.3817 44° Northeast 414 476 29,000  Level Indianapolis Center
09:34PM 37.1111 -86.3117 30° Northeast 404 465 29,000  Level Indianapolis Center
09:36PM 37.2103 -86.2386 30° Northeast 408 470 29,000  Level Indianapolis Center
09:37PM 37.3078 -86.1672 30° Northeast 403 464 29,000  Level Indianapolis Center
09:38PM 37.4069 -86.0942 30° Northeast 407 468 29,000  Level Indianapolis Center
09:39PM 37.5036 -86.0228 30° Northeast 401 461 29,000  Level Indianapolis Center
09:40PM 37.6017 -85.9514 30° Northeast 403 464 29,000  Level Indianapolis Center
09:41PM 37.6981 -85.8808 30° Northeast 401 461 29,000  Level Indianapolis Center
09:42PM 37.7939 -85.8083 31° Northeast 401 461 29,000  Level Indianapolis Center
09:43PM 37.8878 -85.7383 30° Northeast 393 452 29,000  Level Indianapolis Center
09:44PM 37.9825 -85.6681 30° Northeast 392 451 29,000  Level Indianapolis Center
09:45PM 38.0933 -85.5844 31° Northeast 387 445 29,000  Level Indianapolis Center
09:46PM 38.1817 -85.5031 36° Northeast 390 449 29,000  Level Indianapolis Center
09:47PM 38.2703 -85.4197 36° Northeast 395 455 29,000  Level Indianapolis Center
09:48PM 38.3583 -85.3361 37° Northeast 395 455 29,000  Level Indianapolis Center
09:49PM 38.4447 -85.2536 37° Northeast 391 450 29,000  Level Indianapolis Center
09:50PM 38.5353 -85.1608 39° Northeast 384 442 29,000  Level Indianapolis Center
09:51PM 38.6014 -85.0544 51° Northeast 379 436 29,000  Level Indianapolis Center
09:52PM 38.6631 -84.9553 51° Northeast 378 435 29,000  Level Indianapolis Center
09:53PM 38.7300 -84.8472 52° Northeast 385 443 29,000 -240 Level Indianapolis Center
09:54PM 38.7989 -84.7350 52° Northeast 393 452 28,600 -720 Descending Indianapolis Center
09:55PM 38.8681 -84.6219 52° Northeast 399 459 27,600 -1,080 Descending Indianapolis Center
09:56PM 38.9417 -84.5011 52° Northeast 398 458 26,500 -960 Descending Indianapolis Center
09:57PM 39.0075 -84.3958 51° Northeast 378 435 25,700 -660 Descending Indianapolis Center
09:58PM 39.0683 -84.2942 52° Northeast 357 411 25,200 -540 Descending Indianapolis Center
09:59PM 39.1269 -84.1964 52° Northeast 345 397 24,700 -900 Descending Indianapolis Center
10:00PM 39.1853 -84.1003 52° Northeast 339 390 23,400 -1,680 Descending Indianapolis Center
10:01PM 39.2475 -83.9956 52° Northeast 364 419 21,300 -1,920 Descending Indianapolis Center
10:02PM 39.3092 -83.8950 52° Northeast 354 407 19,500 -1,800 Descending Indianapolis Center
10:03PM 39.3658 -83.8000 52° Northeast 336 387 17,700 -1,800 Descending Indianapolis Center
10:04PM 39.4397 -83.7400 32° Northeast 318 366 15,900 -1,860 Descending Indianapolis Center
10:05PM 39.4994 -83.6569 47° Northeast 313 360 14,000 -2,340 Descending Indianapolis Center
10:06PM 39.5325 -83.6058 50° Northeast 312 359 12,500 -2,400 Descending Indianapolis Center
10:06PM 39.5667 -83.5547 49° Northeast 317 365 11,600 -1,080 Descending Indianapolis Center
10:07PM 39.6122 -83.4886 48° Northeast 307 353 11,000 -600 Descending Indianapolis Center
10:08PM 39.6617 -83.4133 50° Northeast 296 341 10,600 -780 Descending Indianapolis Center
10:08PM 39.6744 -83.3892 56° Northeast 297 342 10,100 -1,380 Descending Indianapolis Center
10:09PM 39.7122 -83.3244 53° Northeast 303 349 9,200 -1,200 Descending Indianapolis Center
10:09PM 39.7217 -83.2983 65° Northeast 305 351 8,900 -1,140 Descending Indianapolis Center
10:10PM 39.7506 -83.2258 63° Northeast 282 325 8,100 -1,020 Descending Indianapolis Center
10:10PM 39.7575 -83.2089 62° Northeast 286 329 7,900 -1,020 Descending Indianapolis Center
10:11PM 39.7808 -83.1536 61° Northeast 272 313 7,200 -1,140 Descending Indianapolis Center
10:11PM 39.7906 -83.1214 69° East 274 315 6,800 -960 Descending Indianapolis Center
10:12PM 39.8222 -83.0389 63° Northeast 250 288 6,000 -420 Descending Indianapolis Center
10:13PM 39.8506 -82.9608 65° Northeast 236 272 6,000 -120 Level Indianapolis Center
10:14PM 39.8733 -82.9008 64° Northeast 243 280 5,800 -600 Descending Indianapolis Center
10:14PM 39.8794 -82.8811 68° East 243 280 5,400 -1,200 Descending Indianapolis Center
10:15PM 39.9053 -82.8033 67° East 236 272 4,300 -900 Descending Indianapolis Center
10:16PM 39.9022 -82.7494 94° East 223 257 4,000 -300 Descending Indianapolis Center
10:16PM 39.9011 -82.7194 93° East 229 264 4,000  Level Indianapolis Center
10:17PM 39.9125 -82.6608 76° East 212 244 4,000 -480 Level Indianapolis Center
10:18PM 39.9622 -82.6664 355° North 173 199 3,200 -480 Descending Indianapolis Center
10:19PM 39.9908 -82.7194 305° West 183 211 3,000 -420 Descending Indianapolis Center
10:20PM 39.9944 -82.7786 275° West 175 201 2,400 -780 Descending Indianapolis Center